Tiempo atmosférico en la estación meteorológica de Cabo de Gata, Almería (42 m.)



Fecha
DESCASC
Temp. máxima en grados centígrados (hora)
DESCASC
Temp. mínima en grados centígrados (hora)
DESCASC
Temp. media en grados centígrados
DESCASC
Racha de viento máxima en m/sg (hora)
DESCASC
Velocidad máxima media en intervalos de 10 minutos(hora)
DESCASC
Precipitaciones diarias en mm
DESCASC
Precipitaciones de 00:00 a 06:00 en mm
DESCASC
Precipitaciones de 06:00 a 12:00 en mm
DESCASC
Precipitaciones de 12:00 a 18:00 en mm
DESCASC
Precipitaciones de 18:00 a 24:00 en mm
DESCASC
22-04-2019 20.4 (16:20) 14.7 (08:00) 17.5 10.28 (23:40) 8.06 (23:59) 0 0 0 0 0
21-04-2019 15.7 (16:20) 13.3 (08:30) 14.5 15.56 (06:20) 7.22 (02:30) 10.8 0.2 9 1.2 0.4
20-04-2019 18.2 (16:10) 13.5 (10:40) 15.9 15.28 (23:40) 8.61 (23:40) 7.4 0 7.4 0 0
19-04-2019 18.9 (14:30) 13.2 (04:40) 16 10 (04:30) 7.5 (00:10) 12.8 12.8 0 0 0
18-04-2019 17.2 (00:20) 12.9 (00:00) 15.1 13.61 (13:10) 8.61 (13:10) 1.2 0 0 1.2 0
17-04-2019 19.7 (14:20) 16.1 (00:00) 17.9 23.61 (20:00) 15.28 (15:50) 0 0 0 0 0
16-04-2019 20.8 (18:10) 15.4 (00:00) 18.1 18.06 (20:40) 12.22 (19:50) 0 0 0 0 0
15-04-2019 24 (12:10) 16.2 (00:00) 20.1 11.94 (23:30) 6.39 (23:40) 0 0 0 0 0
14-04-2019 20.9 (15:30) 15.8 (00:00) 18.3 9.44 (01:30) 7.5 (01:30) 0 0 0 0 0
13-04-2019 21.4 (14:10) 14.6 (00:00) 18 9.72 (21:10) 6.67 (21:10) 0 0 0 0 0
12-04-2019 22 (13:30) 13.4 (00:00) 17.7 9.17 (22:30) 6.11 (23:30) 0 0 0 0 0
11-04-2019 20.4 (15:40) 14.7 (00:00) 17.5 11.39 (00:20) 5.83 (05:30) 0 0 0 0 0
10-04-2019 18.8 (14:20) 13.3 (00:00) 16 13.89 (23:30) 7.5 (17:10) 0 0 0 0 0
09-04-2019 17.7 (12:40) 14.1 (00:00) 15.9 15.28 (01:30) 10.28 (21:00) 0 0 0 0 0
08-04-2019 18.8 (14:30) 14.7 (00:00) 16.7 18.06 (08:40) 13.61 (21:40) 0 0 0 0 0
07-04-2019 18.1 (13:50) 13.5 (00:00) 15.8 20 (04:40) 12.5 (04:50) 0 0 0 0 0
06-04-2019 16 (12:40) 12.8 (00:00) 14.4 19.72 (16:50) 13.06 (19:30) 0 0 0 0 0
05-04-2019 16.2 (12:40) 12.9 (00:00) 14.6 18.89 (14:50) 11.39 (13:40) 0.8 0 0 0.8 0
04-04-2019 16.7 (12:30) 14.3 (00:00) 15.5 17.78 (08:40) 11.67 (10:10) 0 0 0 0 0
03-04-2019 20.1 (15:20) 15.1 (00:00) 17.6 11.67 (18:20) 6.67 (18:30) 0 0 0 0 0
02-04-2019 19.9 (15:20) 13.8 (00:00) 16.8 7.5 (07:20) 4.72 (05:00) 0 0 0 0 0
01-04-2019 18.3 (14:40) 13.7 (00:00) 16 6.39 (00:20) 4.72 (00:20) 12 12 0 0 0
31-03-2019 16.2 (15:40) 13.4 (00:00) 14.8 17.22 (08:40) 11.11 (09:10) 0.6 0 0 0 0.6
30-03-2019 16.8 (13:10) 13.1 (00:00) 14.9 23.33 (15:40) 16.67 (16:10) 1 0 0 0 1
29-03-2019 16.9 (12:50) 13.2 (00:00) 15 23.61 (14:20) 16.11 (13:30) 0 0 0 0 0
28-03-2019 16.8 (11:50) 12.1 (00:00) 14.4 16.67 (14:50) 11.39 (14:40) 0 0 0 0 0
27-03-2019 16.6 (13:10) 13 (00:00) 14.8 25 (11:00) 14.44 (14:30) 0 0 0 0 0
26-03-2019 18.7 (10:20) 14.1 (00:00) 16.4 28.89 (13:30) 17.5 (13:30) 0 0 0 0 0
25-03-2019 20.5 (11:30) 15.8 (00:00) 18.2 17.22 (13:50) 10.56 (18:30) 0 0 0 0 0

Gráficas

Temp. máximas Temp. mínimas Temp. medias Precipitaciones Rachas de viento máximas Velocidades máximas media en intervalos de 10 minutos

Datos horarios

Fecha y hora oficial Temperatura (ºC) Velocidad del viento (km/h) Dirección del viento Racha (km/h) Dirección de racha Precipitación (mm) Presión (hPa) Tendencia (hPa) Humedad (%)
2019-04-23 23:00:00 15.2 36 Oeste 55 Oeste 0 -- -- 72
2019-04-23 22:00:00 15.3 33 Oeste 69 Oeste 0 -- -- 72
2019-04-23 21:00:00 15.2 46 Oeste 71 Oeste 0 -- -- 71
2019-04-23 20:00:00 15.4 44 Oeste 65 Oeste 0 -- -- 73
2019-04-23 19:00:00 15.4 35 Oeste 57 Oeste 0 -- -- 75
2019-04-23 18:00:00 14.7 15 Oeste 37 Oeste 0 -- -- 78
2019-04-23 17:00:00 14.4 12 Sur 39 Sudoeste 0 -- -- 82
2019-04-23 16:00:00 15.7 10 Sudeste 30 Sudoeste 0 -- -- 85
2019-04-23 15:00:00 15.3 16 Oeste 45 Oeste 0.6 -- -- 85
2019-04-23 14:00:00 15.1 32 Oeste 54 Oeste 3.8 -- -- 82
2019-04-23 13:00:00 16.9 37 Oeste 61 Oeste 0 -- -- 75
2019-04-23 12:00:00 18.1 32 Oeste 54 Sudoeste 0 -- -- 72
2019-04-23 11:00:00 17.4 23 Oeste 57 Oeste 0 -- -- 75
2019-04-23 10:00:00 17.9 45 Oeste 60 Oeste 0 -- -- 76
2019-04-23 09:00:00 16.6 28 Oeste 53 Oeste 0 -- -- 82
2019-04-23 08:00:00 16 27 Oeste 53 Sudoeste 0 -- -- 83
2019-04-23 07:00:00 16.1 32 Oeste 55 Oeste 0 -- -- 83
2019-04-23 06:00:00 16.1 32 Oeste 52 Oeste 0 -- -- 84
2019-04-23 05:00:00 16.1 36 Oeste 57 Oeste 0 -- -- 84
2019-04-23 04:00:00 16.1 32 Oeste 55 Oeste 0 -- -- 84
2019-04-23 03:00:00 16.3 33 Oeste 59 Oeste 0 -- -- 85
2019-04-23 02:00:00 16.4 39 Oeste 53 Oeste 0 -- -- 85
2019-04-23 01:00:00 16.7 35 Oeste 49 Oeste 0 -- -- 85
2019-04-23 00:00:00 17 29 Oeste 37 Oeste 0 -- -- 85
2019-04-22 23:00:00 17.3 17 Oeste 27 Sudoeste 0 -- -- 84
2019-04-22 22:00:00 17.4 10 Oeste 24 Oeste 0 -- -- 82
2019-04-22 21:00:00 17.7 8 Oeste 21 Oeste 0 -- -- 80
2019-04-22 20:00:00 18.1 9 Oeste 15 Oeste 0 -- -- 77
2019-04-22 19:00:00 17.8 4 Sudeste 9 Oeste 0 -- -- 74
2019-04-22 18:00:00 18.2 3 Sur 7 Noroeste 0 -- -- 73
2019-04-22 17:00:00 19.2 4 Oeste 13 Oeste 0 -- -- 69
2019-04-22 16:00:00 20.1 9 Oeste 18 Oeste 0 -- -- 73
2019-04-22 15:00:00 19 8 Oeste 17 Oeste 0 -- -- 76
2019-04-22 14:00:00 18.6 6 Sudeste 13 Sudeste 0 -- -- 77
2019-04-22 13:00:00 19.1 4 Sudeste 10 Sudeste 0 -- -- 81
2019-04-22 12:00:00 17.6 9 Este 20 Este 0 -- -- 85
2019-04-22 11:00:00 16.2 3 Sudeste 9 Este 0 -- -- 87
2019-04-22 10:00:00 15.8 2 Oeste 5 Norte 0 -- -- 87
2019-04-22 09:00:00 14.9 3 Norte 12 Oeste 0 -- -- 88
2019-04-22 08:00:00 14.7 7 Noroeste 17 Noroeste 0 -- -- 88
2019-04-22 07:00:00 14.9 10 Noroeste 17 Noroeste 0 -- -- 88
2019-04-22 06:00:00 15.1 13 Noroeste 23 Oeste 0 -- -- 88
2019-04-22 05:00:00 15 18 Oeste 28 Noroeste 0 -- -- 88
2019-04-22 04:00:00 15.2 14 Oeste 26 Oeste 0 -- -- 88
2019-04-22 03:00:00 15.2 15 Oeste 28 Oeste 0 -- -- 88
2019-04-22 02:00:00 15.4 21 Oeste 31 Oeste 0 -- -- 88
2019-04-22 01:00:00 15.5 10 Oeste 22 Sudoeste 0 -- -- 88
2019-04-22 00:00:00 15.6 10 Oeste 21 Oeste 0 -- -- 88
2019-04-21 23:00:00 15.5 7 Oeste 22 Noroeste 0 -- -- 88
2019-04-21 22:00:00 15.5 12 Oeste 26 Oeste 0 -- -- 87
2019-04-21 21:00:00 15.5 19 Oeste 31 Noroeste 0 -- -- 87
2019-04-21 20:00:00 15.6 18 Oeste 27 Oeste 0 -- -- 86
2019-04-21 19:00:00 15.7 15 Oeste 29 Oeste 0.4 -- -- 86
2019-04-21 18:00:00 15.5 11 Oeste 27 Oeste 1.2 -- -- 85
2019-04-21 17:00:00 15.6 16 Oeste 33 Oeste 0 -- -- 84
2019-04-21 16:00:00 15.3 22 Oeste 33 Oeste 0 -- -- 84
2019-04-21 15:00:00 15.1 19 Oeste 28 Oeste 0 -- -- 82
2019-04-21 14:00:00 14.9 16 Oeste 30 Noroeste 0 -- -- 79
2019-04-21 13:00:00 15 14 Noroeste 33 Noroeste 0 -- -- 72
2019-04-21 12:00:00 14.4 12 Norte 41 Norte 0 -- -- 74
2019-04-21 11:00:00 14.2 19 Norte 53 Norte 0 -- -- 75
2019-04-21 10:00:00 13.6 15 Norte 34 Noroeste 0.2 -- -- 78
2019-04-21 09:00:00 13.5 12 Norte 56 Noroeste 3 -- -- 79
2019-04-21 08:00:00 13.6 12 Norte 38 Norte 3.8 -- -- 79
2019-04-21 07:00:00 14 12 Norte 56 Nordeste 2 -- -- 77
2019-04-21 06:00:00 14.3 24 Norte 48 Norte 0 -- -- 78
2019-04-21 05:00:00 14.7 17 Nordeste 46 Nordeste 0 -- -- 79
2019-04-21 04:00:00 14.9 17 Nordeste 43 Nordeste 0 -- -- 79
2019-04-21 03:00:00 14.9 21 Nordeste 47 Nordeste 0.2 -- -- 78
2019-04-21 02:00:00 14.9 24 Nordeste 47 Nordeste 0 -- -- 78
2019-04-21 01:00:00 15.6 23 Nordeste 40 Nordeste 0 -- -- 76
2019-04-21 00:00:00 15.6 26 Nordeste 55 Nordeste 0 -- -- 78
2019-04-20 23:00:00 15.3 25 Nordeste 49 Nordeste 0 -- -- 80
2019-04-20 22:00:00 15.2 27 Nordeste 44 Nordeste 0 -- -- 79
2019-04-20 21:00:00 15.7 17 Nordeste 39 Nordeste 0 -- -- 76
2019-04-20 20:00:00 16.3 19 Nordeste 42 Este 0 -- -- 75
2019-04-20 19:00:00 16.6 21 Este 33 Este 0 -- -- 73
2019-04-20 18:00:00 16.6 10 Este 21 Este 0 -- -- 71
2019-04-20 17:00:00 17.8 9 Este 15 Sudeste 0 -- -- 71
2019-04-20 16:00:00 18.1 6 Sudeste 21 Este 0 -- -- 75
2019-04-20 15:00:00 17.8 8 Sudeste 23 Sudeste 0 -- -- 77
2019-04-20 14:00:00 16.4 12 Norte 33 Noroeste 0 -- -- 83
2019-04-20 13:00:00 14.9 21 Noroeste 35 Noroeste 0 -- -- 86
2019-04-20 12:00:00 14.3 16 Noroeste 22 Noroeste 0.2 -- -- 87
2019-04-20 11:00:00 13.9 7 Oeste 24 Oeste 2.6 -- -- 87
2019-04-20 10:00:00 14.3 8 Sur 19 Oeste 2.6 -- -- 87
2019-04-20 09:00:00 14.9 5 Sur 13 Sur 1.8 -- -- 86
2019-04-20 08:00:00 14.7 0 Calma 9 Noroeste 0.2 -- -- 85
2019-04-20 07:00:00 14.5 3 Noroeste 14 Noroeste 0 -- -- 85
2019-04-20 06:00:00 14.6 5 Noroeste 12 Norte 0 -- -- 85
2019-04-20 05:00:00 14.6 8 Norte 12 Noroeste 0 -- -- 84
2019-04-20 04:00:00 14.7 5 Noroeste 9 Noroeste 0 -- -- 84
2019-04-20 03:00:00 14.6 3 Norte 5 Noroeste 0 -- -- 83
2019-04-20 02:00:00 14.5 5 Norte 8 Norte 0 -- -- 83
2019-04-20 01:00:00 14.5 0 Calma 12 Norte 0 -- -- 82
2019-04-20 00:00:00 14.6 4 Norte 9 Norte 0 -- -- 81
2019-04-19 23:00:00 14.9 6 Norte 10 Norte 0 -- -- 80
2019-04-19 22:00:00 15.4 0 Calma 6 Sudoeste 0 -- -- 79
2019-04-19 21:00:00 15.7 3 Sudeste 9 Sudeste 0 -- -- 78
2019-04-19 20:00:00 16.1 5 Sudeste 14 Sudeste 0 -- -- 77
2019-04-19 19:00:00 16.7 4 Sudeste 11 Sudeste 0 -- -- 75
2019-04-19 18:00:00 16.9 9 Este 17 Sudeste 0 -- -- 74
2019-04-19 17:00:00 16.9 10 Este 29 Este 0 -- -- 75
2019-04-19 16:00:00 16.8 21 Este 28 Este 0 -- -- 75
2019-04-19 15:00:00 18.6 8 Sudeste 17 Este 0 -- -- 73
2019-04-19 14:00:00 18.4 5 Este 23 Este 0 -- -- 77
2019-04-19 13:00:00 17.3 9 Este 15 Este 0 -- -- 78
2019-04-19 12:00:00 17 2 Sudeste 13 Sudeste 0 -- -- 82
2019-04-19 11:00:00 16.6 3 Sudeste 6 Noroeste 0 -- -- 83
2019-04-19 10:00:00 15 4 Oeste 13 Norte 0 -- -- 84
2019-04-19 09:00:00 13.8 10 Norte 21 Nordeste 0 -- -- 84
2019-04-19 08:00:00 14.6 12 Este 17 Este 0 -- -- 85
2019-04-19 07:00:00 15.2 6 Oeste 15 Oeste 0 -- -- 85
2019-04-19 06:00:00 15.5 6 Sudeste 16 Sudeste 0 -- -- 84
2019-04-19 05:00:00 13.8 9 Norte 36 Nordeste 12.8 -- -- 84
2019-04-19 04:00:00 15.5 13 Sudeste 18 Sudeste 0 -- -- 84
2019-04-19 03:00:00 15.2 5 Este 8 Sudeste 0 -- -- 84
2019-04-19 02:00:00 15.2 2 Oeste 25 Oeste 0 -- -- 84
2019-04-19 01:00:00 15.3 18 Oeste 34 Oeste 0 -- -- 83
2019-04-19 00:00:00 15.3 23 Oeste 37 Oeste 0 -- -- 83
2019-04-18 23:00:00 15.3 25 Oeste 38 Oeste 0 -- -- 84
2019-04-18 22:00:00 15.3 11 Oeste 35 Oeste 0 -- -- 83
2019-04-18 21:00:00 15.4 15 Oeste 36 Oeste 0 -- -- 84
2019-04-18 20:00:00 15.8 7 Sudeste 18 Sudoeste 0 -- -- 85
2019-04-18 19:00:00 15.9 7 Sur 22 Noroeste 0 -- -- 84
2019-04-18 18:00:00 15.5 6 Oeste 18 Oeste 0 -- -- 84
2019-04-18 17:00:00 14.8 5 Sur 15 Sudoeste 0 -- -- 83
2019-04-18 16:00:00 14.8 7 Oeste 19 Oeste 0 -- -- 82
2019-04-18 15:00:00 14.7 14 Oeste 36 Norte 0 -- -- 82
2019-04-18 14:00:00 13.3 20 Noroeste 49 Noroeste 0.4 -- -- 85
2019-04-18 13:00:00 14.1 26 Oeste 45 Noroeste 0.8 -- -- 84
2019-04-18 12:00:00 15.1 21 Oeste 35 Oeste 0 -- -- 85
2019-04-18 11:00:00 15.2 18 Oeste 34 Oeste 0 -- -- 85
2019-04-18 10:00:00 16.7 4 Sur 10 Oeste 0 -- -- 85
2019-04-18 09:00:00 16.1 10 Noroeste 18 Noroeste 0 -- -- 85
2019-04-18 08:00:00 16.1 10 Oeste 17 Oeste 0 -- -- 85
2019-04-18 07:00:00 15.9 4 Oeste 10 Oeste 0 -- -- 85
2019-04-18 06:00:00 16.1 3 Sur 19 Este 0 -- -- 84
2019-04-18 05:00:00 16.3 12 Este 17 Sudeste 0 -- -- 83
2019-04-18 04:00:00 16.4 4 Noroeste 18 Sudoeste 0 -- -- 82
2019-04-18 03:00:00 16.7 3 Sur 23 Noroeste 0 -- -- 81
2019-04-18 02:00:00 16.8 13 Oeste 25 Oeste 0 -- -- 80
2019-04-18 01:00:00 17.1 3 Sur 23 Norte 0 -- -- 78
2019-04-18 00:00:00 17 19 Noroeste 44 Noroeste 0 -- -- 78
2019-04-17 23:00:00 17.4 23 Noroeste 45 Noroeste 0 -- -- 74
2019-04-17 22:00:00 18.5 11 Norte 36 Noroeste 0 -- -- 60
2019-04-17 21:00:00 18.3 15 Noroeste 76 Norte 0 -- -- 61
2019-04-17 20:00:00 17.7 51 Nordeste 85 Nordeste 0 -- -- 68
2019-04-17 19:00:00 17.9 38 Nordeste 74 Nordeste 0 -- -- 70
2019-04-17 18:00:00 17.6 42 Nordeste 77 Nordeste 0 -- -- 71
2019-04-17 17:00:00 18.1 45 Nordeste 80 Nordeste 0 -- -- 68
2019-04-17 16:00:00 18.4 52 Este 82 Nordeste 0 -- -- 66
2019-04-17 15:00:00 19.5 24 Nordeste 56 Este 0 -- -- 64
2019-04-17 14:00:00 19.6 23 Este 57 Nordeste 0 -- -- 62
2019-04-17 13:00:00 19.4 28 Este 56 Nordeste 0 -- -- 61
2019-04-17 12:00:00 18.5 28 Nordeste 58 Nordeste 0 -- -- 65
2019-04-17 11:00:00 18.1 23 Nordeste 58 Este 0 -- -- 66
2019-04-17 10:00:00 17.4 21 Nordeste 51 Nordeste 0 -- -- 71
2019-04-17 09:00:00 16.5 14 Norte 38 Este 0 -- -- 72
2019-04-17 08:00:00 16.1 9 Norte 51 Norte 0 -- -- 71
2019-04-17 07:00:00 16.1 15 Nordeste 55 Nordeste 0 -- -- 71
2019-04-17 06:00:00 16.2 21 Nordeste 49 Nordeste 0 -- -- 72
2019-04-17 05:00:00 16.1 15 Nordeste 42 Nordeste 0 -- -- 73
2019-04-17 04:00:00 16.2 6 Norte 36 Nordeste 0 -- -- 74
2019-04-17 03:00:00 16.3 18 Norte 58 Nordeste 0 -- -- 76
2019-04-17 02:00:00 16.2 31 Nordeste 62 Este 0 -- -- 78
2019-04-17 01:00:00 16.3 38 Nordeste 66 Nordeste 0 -- -- 76
2019-04-17 00:00:00 16.6 37 Nordeste 59 Este 0 -- -- 75
2019-04-16 23:00:00 16.8 39 Nordeste 57 Nordeste 0 -- -- 75
2019-04-16 22:00:00 17.1 44 Nordeste 63 Nordeste 0 -- -- 74
2019-04-16 21:00:00 18 34 Nordeste 65 Este 0 -- -- 71
2019-04-16 20:00:00 18.8 43 Este 58 Este 0 -- -- 61
2019-04-16 19:00:00 20 27 Este 44 Este 0 -- -- 51
2019-04-16 18:00:00 20.6 25 Este 42 Este 0 -- -- 51
2019-04-16 17:00:00 18.4 24 Este 38 Sudeste 0 -- -- 79
2019-04-16 16:00:00 19 25 Este 34 Este 0 -- -- 77
2019-04-16 15:00:00 20.1 14 Este 21 Este 0 -- -- 70
2019-04-16 14:00:00 20.6 6 Sudeste 14 Este 0 -- -- 74
2019-04-16 13:00:00 19.5 5 Sudeste 22 Este 0 -- -- 79
2019-04-16 12:00:00 18.4 14 Este 33 Este 0 -- -- 82
2019-04-16 11:00:00 17.3 26 Este 38 Este 0 -- -- 83
2019-04-16 10:00:00 16.9 34 Este 45 Este 0 -- -- 83
2019-04-16 09:00:00 16.6 4 Noroeste 14 Noroeste 0 -- -- 85
2019-04-16 08:00:00 15.6 3 Sudoeste 28 Noroeste 0 -- -- 85
2019-04-16 07:00:00 15.8 22 Noroeste 32 Noroeste 0 -- -- 84
2019-04-16 06:00:00 16.1 14 Noroeste 24 Noroeste 0 -- -- 84
2019-04-16 05:00:00 16.3 14 Noroeste 25 Oeste 0 -- -- 83
2019-04-16 04:00:00 16.6 17 Noroeste 36 Noroeste 0 -- -- 81
2019-04-16 03:00:00 16.9 21 Noroeste 43 Noroeste 0 -- -- 80
2019-04-16 02:00:00 17.2 17 Noroeste 49 Norte 0 -- -- 77
2019-04-16 01:00:00 17.6 14 Oeste 42 Norte 0 -- -- 74
2019-04-16 00:00:00 17.9 21 Noroeste 43 Sudoeste 0 -- -- 72
2019-04-15 23:00:00 18.4 8 Oeste 17 Oeste 0 -- -- 70
2019-04-15 22:00:00 18.4 5 Sudoeste 15 Sudoeste 0 -- -- 66
2019-04-15 21:00:00 18.6 6 Oeste 19 Oeste 0 -- -- 56
2019-04-15 20:00:00 19.2 6 Noroeste 14 Oeste 0 -- -- 57
2019-04-15 19:00:00 19.5 4 Sudeste 18 Este 0 -- -- 59
2019-04-15 18:00:00 19.8 11 Este 24 Este 0 -- -- 61
2019-04-15 17:00:00 20.1 18 Este 22 Sudeste 0 -- -- 64
2019-04-15 16:00:00 21.3 13 Este 17 Este 0 -- -- 47
2019-04-15 15:00:00 20.9 6 Sudeste 9 Sudeste 0 -- -- 65
2019-04-15 14:00:00 21.8 5 Sudeste 11 Sudeste 0 -- -- 64
2019-04-15 13:00:00 22.2 6 Sudeste 14 Este 0 -- -- 64
2019-04-15 12:00:00 23.3 2 Sudoeste 13 Oeste 0 -- -- 42
2019-04-15 11:00:00 22.3 8 Oeste 14 Oeste 0 -- -- 44
2019-04-15 10:00:00 19.6 4 Sudeste 8 Norte 0 -- -- 55
2019-04-15 09:00:00 18.8 4 Noroeste 17 Noroeste 0 -- -- 55
2019-04-15 08:00:00 16.5 9 Noroeste 22 Noroeste 0 -- -- 64
2019-04-15 07:00:00 16.4 13 Noroeste 29 Noroeste 0 -- -- 75
2019-04-15 06:00:00 16.4 13 Oeste 24 Noroeste 0 -- -- 81
2019-04-15 05:00:00 16.4 12 Oeste 19 Noroeste 0 -- -- 83
2019-04-15 04:00:00 16.6 12 Oeste 19 Noroeste 0 -- -- 83
2019-04-15 03:00:00 16.8 14 Noroeste 23 Noroeste 0 -- -- 83
2019-04-15 02:00:00 16.9 10 Oeste 18 Oeste 0 -- -- 83
2019-04-15 01:00:00 17.1 9 Oeste 21 Oeste 0 -- -- 83
2019-04-15 00:00:00 17.5 12 Oeste 22 Noroeste 0 -- -- 81
2019-04-14 23:00:00 17.7 13 Oeste 24 Oeste 0 -- -- 77
2019-04-14 22:00:00 17.7 15 Oeste 23 Oeste 0 -- -- 78
2019-04-14 21:00:00 18 12 Oeste 21 Oeste 0 -- -- 78
2019-04-14 20:00:00 18.6 9 Oeste 15 Oeste 0 -- -- 78
2019-04-14 19:00:00 19.2 6 Oeste 16 Noroeste 0 -- -- 77
2019-04-14 18:00:00 19.6 9 Oeste 15 Oeste 0 -- -- 75
2019-04-14 17:00:00 20.6 7 Oeste 15 Oeste 0 -- -- 73
2019-04-14 16:00:00 20.5 9 Oeste 13 Oeste 0 -- -- 71
2019-04-14 15:00:00 20.7 6 Oeste 12 Oeste 0 -- -- 73
2019-04-14 14:00:00 20.6 5 Oeste 9 Oeste 0 -- -- 73
2019-04-14 13:00:00 20.6 5 Oeste 9 Oeste 0 -- -- 73
2019-04-14 12:00:00 20 4 Sudoeste 15 Oeste 0 -- -- 75
2019-04-14 11:00:00 19.8 8 Oeste 21 Noroeste 0 -- -- 79
2019-04-14 10:00:00 18.1 15 Noroeste 22 Noroeste 0 -- -- 84
2019-04-14 09:00:00 16.9 10 Oeste 18 Oeste 0 -- -- 86
2019-04-14 08:00:00 15.8 9 Oeste 17 Oeste 0 -- -- 86
2019-04-14 07:00:00 15.8 9 Oeste 19 Noroeste 0 -- -- 85
2019-04-14 06:00:00 15.9 11 Oeste 21 Noroeste 0 -- -- 83
2019-04-14 05:00:00 16.1 12 Oeste 24 Noroeste 0 -- -- 81
2019-04-14 04:00:00 16.3 14 Oeste 23 Noroeste 0 -- -- 78
2019-04-14 03:00:00 16.6 14 Noroeste 23 Noroeste 0 -- -- 75
2019-04-14 02:00:00 16.7 17 Noroeste 34 Oeste 0 -- -- 73
2019-04-14 01:00:00 16.9 25 Noroeste 32 Noroeste 0 -- -- 72
2019-04-14 00:00:00 17.1 17 Oeste 31 Noroeste 0 -- -- 70
2019-04-13 23:00:00 17.3 14 Oeste 34 Noroeste 0 -- -- 67
2019-04-13 22:00:00 17.3 21 Noroeste 35 Noroeste 0 -- -- 69
2019-04-13 21:00:00 17.2 18 Oeste 32 Noroeste 0 -- -- 72
2019-04-13 20:00:00 17.9 9 Oeste 18 Noroeste 0 -- -- 73
2019-04-13 19:00:00 18.3 3 Noroeste 17 Noroeste 0 -- -- 74
2019-04-13 18:00:00 19.4 6 Oeste 15 Noroeste 0 -- -- 73
2019-04-13 17:00:00 20.1 5 Noroeste 14 Oeste 0 -- -- 72
2019-04-13 16:00:00 21 5 Oeste 9 Sudoeste 0 -- -- 70
2019-04-13 15:00:00 20.7 4 Sudoeste 10 Oeste 0 -- -- 68
2019-04-13 14:00:00 21.1 3 Sudoeste 12 Sudoeste 0 -- -- 65
2019-04-13 13:00:00 20.7 6 Oeste 16 Oeste 0 -- -- 64
2019-04-13 12:00:00 20 9 Oeste 22 Oeste 0 -- -- 65
2019-04-13 11:00:00 18.9 19 Oeste 26 Noroeste 0 -- -- 59
2019-04-13 10:00:00 18 14 Oeste 28 Noroeste 0 -- -- 63
2019-04-13 09:00:00 16.1 19 Noroeste 28 Noroeste 0 -- -- 76
2019-04-13 08:00:00 15.2 15 Oeste 24 Noroeste 0 -- -- 82
2019-04-13 07:00:00 15.3 13 Noroeste 26 Noroeste 0 -- -- 78
2019-04-13 06:00:00 15.6 12 Noroeste 22 Noroeste 0 -- -- 74
2019-04-13 05:00:00 15.5 13 Noroeste 20 Noroeste 0 -- -- 71
2019-04-13 04:00:00 14.7 6 Noroeste 10 Norte 0 -- -- 65
2019-04-13 03:00:00 15.2 2 Noroeste 13 Noroeste 0 -- -- 67
2019-04-13 02:00:00 15.8 5 Oeste 20 Noroeste 0 -- -- 72
2019-04-13 01:00:00 16.3 12 Oeste 27 Noroeste 0 -- -- 69
2019-04-13 00:00:00 16.5 16 Oeste 32 Noroeste 0 -- -- 69
2019-04-12 23:00:00 16.8 20 Noroeste 33 Noroeste 0 -- -- 68
2019-04-12 22:00:00 16.9 14 Oeste 23 Noroeste 0 -- -- 72
2019-04-12 21:00:00 17.7 9 Oeste 15 Noroeste 0 -- -- 71
2019-04-12 20:00:00 18.2 4 Oeste 6 Noroeste 0 -- -- 69
2019-04-12 19:00:00 18.3 3 Oeste 6 Noroeste 0 -- -- 67
2019-04-12 18:00:00 18.8 2 Sudeste 11 Noroeste 0 -- -- 63
2019-04-12 17:00:00 20.2 6 Oeste 10 Oeste 0 -- -- 61
2019-04-12 16:00:00 20.2 5 Noroeste 9 Noroeste 0 -- -- 61
2019-04-12 15:00:00 21.6 4 Oeste 8 Sudoeste 0 -- -- 62
2019-04-12 14:00:00 21.7 4 Sur 8 Sur 0 -- -- 56
2019-04-12 13:00:00 21.5 4 Sur 7 Este 0 -- -- 38
2019-04-12 12:00:00 20.3 3 Sur 8 Este 0 -- -- 46
2019-04-12 11:00:00 18.6 0 Calma 5 Oeste 0 -- -- 58
2019-04-12 10:00:00 18.3 4 Sudoeste 6 Sudeste 0 -- -- 72
2019-04-12 09:00:00 16.9 0 Calma 14 Este 0 -- -- 72
2019-04-12 08:00:00 14.8 8 Este 13 Sudeste 0 -- -- 66
2019-04-12 07:00:00 15.5 7 Norte 12 Norte 0 -- -- 56
2019-04-12 06:00:00 14.4 0 Calma 15 Noroeste 0 -- -- 74
2019-04-12 05:00:00 13.4 8 Noroeste 16 Noroeste 0 -- -- 74
2019-04-12 04:00:00 14.6 5 Norte 9 Norte 0 -- -- 81
2019-04-12 03:00:00 15.6 5 Este 10 Sudeste 0 -- -- 81
2019-04-12 02:00:00 15.7 3 Sudeste 14 Sudeste 0 -- -- 80
2019-04-12 01:00:00 15.7 2 Sur 10 Norte 0 -- -- 78
2019-04-12 00:00:00 15.4 5 Norte 15 Norte 0 -- -- 76
2019-04-11 23:00:00 16 5 Este 8 Norte 0 -- -- 75
2019-04-11 22:00:00 16.1 3 Este 5 Norte 0 -- -- 73
2019-04-11 21:00:00 16.5 0 Calma 6 Oeste 0 -- -- 72
2019-04-11 20:00:00 17 3 Noroeste 11 Noroeste 0 -- -- 71
2019-04-11 19:00:00 17.4 5 Noroeste 17 Sudoeste 0 -- -- 70
2019-04-11 18:00:00 18 8 Oeste 18 Sudoeste 0 -- -- 70
2019-04-11 17:00:00 18.5 6 Sudoeste 18 Oeste 0 -- -- 64
2019-04-11 16:00:00 20.4 8 Oeste 17 Oeste 0 -- -- 62
2019-04-11 15:00:00 19.5 6 Oeste 12 Sudoeste 0 -- -- 65
2019-04-11 14:00:00 19.5 6 Sudoeste 17 Sudoeste 0 -- -- 63
2019-04-11 13:00:00 19 6 Noroeste 15 Noroeste 0 -- -- 64
2019-04-11 12:00:00 19.3 8 Oeste 23 Oeste 0 -- -- 60
2019-04-11 11:00:00 19 11 Oeste 23 Noroeste 0 -- -- 61
2019-04-11 10:00:00 17.9 21 Noroeste 33 Noroeste 0 -- -- 48
2019-04-11 09:00:00 17.5 9 Oeste 29 Norte 0 -- -- 48
2019-04-11 08:00:00 16.5 17 Norte 30 Noroeste 0 -- -- 40
2019-04-11 07:00:00 15.5 12 Norte 22 Norte 0 -- -- 44
2019-04-11 06:00:00 16 12 Norte 29 Norte 0 -- -- 43
2019-04-11 05:00:00 15.6 13 Noroeste 36 Norte 0 -- -- 50
2019-04-11 04:00:00 15.2 6 Oeste 30 Noroeste 0 -- -- 59
2019-04-11 03:00:00 15 6 Oeste 18 Oeste 0 -- -- 62
2019-04-11 02:00:00 14.8 5 Noroeste 22 Oeste 0 -- -- 55
2019-04-11 01:00:00 15.4 16 Noroeste 41 Norte 0 -- -- 52
2019-04-11 00:00:00 15.5 18 Norte 50 Nordeste 0 -- -- 48
2019-04-10 23:00:00 16.2 23 Este 33 Este 0 -- -- 54
2019-04-10 22:00:00 16.7 5 Noroeste 18 Noroeste 0 -- -- 49
2019-04-10 21:00:00 16.5 5 Este 21 Noroeste 0 -- -- 63
2019-04-10 20:00:00 15.9 7 Norte 27 Oeste 0 -- -- 72
2019-04-10 19:00:00 16.4 14 Oeste 32 Sudoeste 0 -- -- 70
2019-04-10 18:00:00 16.7 19 Oeste 37 Sudoeste 0 -- -- 67
2019-04-10 17:00:00 17.5 22 Oeste 40 Sudoeste 0 -- -- 64
2019-04-10 16:00:00 17.9 23 Oeste 41 Oeste 0 -- -- 63
2019-04-10 15:00:00 18.4 21 Oeste 36 Oeste 0 -- -- 65
2019-04-10 14:00:00 18.3 6 Sudoeste 17 Sudoeste 0 -- -- 67
2019-04-10 13:00:00 17.2 7 Sur 19 Sudoeste 0 -- -- 68
2019-04-10 12:00:00 17.5 7 Sur 15 Sur 0 -- -- 67
2019-04-10 11:00:00 16.6 8 Sur 19 Sur 0 -- -- 67
2019-04-10 10:00:00 17.6 8 Oeste 16 Oeste 0 -- -- 66
2019-04-10 09:00:00 16 5 Oeste 23 Norte 0 -- -- 63
2019-04-10 08:00:00 14.4 14 Noroeste 24 Noroeste 0 -- -- 60
2019-04-10 07:00:00 14.1 6 Noroeste 18 Noroeste 0 -- -- 65
2019-04-10 06:00:00 13.3 4 Norte 10 Norte 0 -- -- 74
2019-04-10 05:00:00 14.5 2 Este 7 Este 0 -- -- 77
2019-04-10 04:00:00 14.6 0 Calma 23 Oeste 0 -- -- 76
2019-04-10 03:00:00 14.5 8 Noroeste 22 Oeste 0 -- -- 77
2019-04-10 02:00:00 15 21 Oeste 33 Oeste 0 -- -- 78
2019-04-10 01:00:00 14.8 19 Noroeste 32 Noroeste 0 -- -- 79
2019-04-10 00:00:00 14.9 13 Noroeste 24 Noroeste 0 -- -- 79
2019-04-09 23:00:00 15.1 13 Noroeste 34 Noroeste 0 -- -- 80
2019-04-09 22:00:00 15.4 26 Oeste 53 Oeste 0 -- -- 79
2019-04-09 21:00:00 15.5 37 Oeste 54 Oeste 0 -- -- 77
2019-04-09 20:00:00 15.8 29 Oeste 48 Oeste 0 -- -- 76
2019-04-09 19:00:00 16.1 29 Oeste 50 Oeste 0 -- -- 75
2019-04-09 18:00:00 16.3 27 Oeste 51 Oeste 0 -- -- 73
2019-04-09 17:00:00 16.6 28 Oeste 49 Oeste 0 -- -- 70
2019-04-09 16:00:00 16.9 25 Oeste 53 Oeste 0 -- -- 67
2019-04-09 15:00:00 17.3 27 Oeste 49 Sudoeste 0 -- -- 66
2019-04-09 14:00:00 17.4 19 Oeste 36 Oeste 0 -- -- 68
2019-04-09 13:00:00 17.5 12 Oeste 31 Oeste 0 -- -- 67
2019-04-09 12:00:00 17.1 11 Oeste 29 Oeste 0 -- -- 68
2019-04-09 11:00:00 16.6 10 Oeste 37 Oeste 0 -- -- 70
2019-04-09 10:00:00 15.9 18 Oeste 35 Sudoeste 0 -- -- 73
2019-04-09 09:00:00 15.3 8 Oeste 30 Sudoeste 0 -- -- 80
2019-04-09 08:00:00 14.1 13 Oeste 30 Oeste 0 -- -- 85
2019-04-09 07:00:00 14.3 13 Oeste 31 Oeste 0 -- -- 86
2019-04-09 06:00:00 14.4 25 Oeste 37 Oeste 0 -- -- 87
2019-04-09 05:00:00 14.6 28 Oeste 45 Oeste 0 -- -- 87
2019-04-09 04:00:00 14.8 23 Oeste 43 Oeste 0 -- -- 87
2019-04-09 03:00:00 15 30 Oeste 49 Oeste 0 -- -- 86
2019-04-09 02:00:00 15.3 30 Oeste 55 Oeste 0 -- -- 85
2019-04-09 01:00:00 15.3 32 Oeste 52 Sudoeste 0 -- -- 84
2019-04-09 00:00:00 15.6 33 Oeste 60 Sudoeste 0 -- -- 82
2019-04-08 23:00:00 15.8 30 Oeste 54 Sudoeste 0 -- -- 81
2019-04-08 22:00:00 16 35 Oeste 60 Oeste 0 -- -- 80
2019-04-08 21:00:00 16.2 48 Oeste 61 Oeste 0 -- -- 81
2019-04-08 20:00:00 16.3 26 Oeste 45 Sudoeste 0 -- -- 81
2019-04-08 19:00:00 16.6 24 Oeste 42 Oeste 0 -- -- 80
2019-04-08 18:00:00 17 21 Oeste 47 Sudoeste 0 -- -- 79
2019-04-08 17:00:00 17.4 24 Oeste 44 Sudoeste 0 -- -- 78
2019-04-08 16:00:00 18 22 Oeste 41 Oeste 0 -- -- 76
2019-04-08 15:00:00 18.4 17 Oeste 37 Sudoeste 0 -- -- 75
2019-04-08 14:00:00 18.2 21 Oeste 48 Noroeste 0 -- -- 77
2019-04-08 13:00:00 17.8 35 Oeste 50 Noroeste 0 -- -- 81
2019-04-08 12:00:00 17.7 19 Oeste 40 Oeste 0 -- -- 85
2019-04-08 11:00:00 16.4 25 Oeste 43 Oeste 0 -- -- 88
2019-04-08 10:00:00 15.6 35 Oeste 47 Oeste 0 -- -- 88
2019-04-08 09:00:00 15.1 29 Oeste 65 Oeste 0 -- -- 89
2019-04-08 08:00:00 14.8 33 Oeste 49 Oeste 0 -- -- 88
2019-04-08 07:00:00 14.9 26 Oeste 50 Oeste 0 -- -- 88
2019-04-08 06:00:00 14.8 37 Oeste 48 Oeste 0 -- -- 88
2019-04-08 05:00:00 14.9 34 Oeste 47 Oeste 0 -- -- 88
2019-04-08 04:00:00 14.9 32 Oeste 48 Oeste 0 -- -- 87
2019-04-08 03:00:00 15.1 23 Oeste 43 Oeste 0 -- -- 87
2019-04-08 02:00:00 15.3 29 Oeste 50 Oeste 0 -- -- 86
2019-04-08 01:00:00 15.3 40 Oeste 57 Oeste 0 -- -- 84
2019-04-08 00:00:00 15.3 28 Oeste 49 Oeste 0 -- -- 83
2019-04-07 23:00:00 15.4 28 Oeste 41 Oeste 0 -- -- 81
2019-04-07 22:00:00 15.4 34 Oeste 43 Oeste 0 -- -- 79
2019-04-07 21:00:00 15.6 26 Oeste 47 Oeste 0 -- -- 76
2019-04-07 20:00:00 16 23 Oeste 45 Sudoeste 0 -- -- 75
2019-04-07 19:00:00 16.1 14 Oeste 34 Oeste 0 -- -- 73
2019-04-07 18:00:00 16.3 18 Oeste 48 Oeste 0 -- -- 71
2019-04-07 17:00:00 16.7 30 Oeste 52 Sudoeste 0 -- -- 66
2019-04-07 16:00:00 17.3 24 Oeste 44 Oeste 0 -- -- 64
2019-04-07 15:00:00 17.6 15 Oeste 35 Sudoeste 0 -- -- 63
2019-04-07 14:00:00 18 10 Oeste 44 Oeste 0 -- -- 59
2019-04-07 13:00:00 17.4 18 Oeste 39 Sudoeste 0 -- -- 58
2019-04-07 12:00:00 17.4 22 Oeste 42 Oeste 0 -- -- 58
2019-04-07 11:00:00 16.9 24 Oeste 38 Oeste 0 -- -- 57
2019-04-07 10:00:00 16.3 23 Oeste 33 Oeste 0 -- -- 57
2019-04-07 09:00:00 14.9 15 Oeste 49 Oeste 0 -- -- 60
2019-04-07 08:00:00 13.6 21 Oeste 51 Noroeste 0 -- -- 65
2019-04-07 07:00:00 13.5 24 Oeste 58 Oeste 0 -- -- 68
2019-04-07 06:00:00 13.9 29 Oeste 57 Oeste 0 -- -- 70
2019-04-07 05:00:00 13.7 43 Oeste 72 Oeste 0 -- -- 71
2019-04-07 04:00:00 13.6 40 Oeste 57 Oeste 0 -- -- 71
2019-04-07 03:00:00 13.7 37 Oeste 63 Oeste 0 -- -- 69
2019-04-07 02:00:00 13.7 34 Oeste 55 Oeste 0 -- -- 67
2019-04-07 01:00:00 13.7 32 Oeste 57 Oeste 0 -- -- 69
2019-04-07 00:00:00 13.9 41 Oeste 58 Oeste 0 -- -- 72
2019-04-06 23:00:00 14 30 Oeste 50 Oeste 0 -- -- 74
2019-04-06 22:00:00 14.2 32 Oeste 58 Oeste 0 -- -- 74
2019-04-06 21:00:00 14.2 33 Oeste 63 Oeste 0 -- -- 74
2019-04-06 20:00:00 14.5 36 Oeste 69 Oeste 0 -- -- 74
2019-04-06 19:00:00 14.5 32 Oeste 65 Oeste 0 -- -- 74
2019-04-06 18:00:00 14.3 28 Oeste 70 Oeste 0 -- -- 73
2019-04-06 17:00:00 15 39 Oeste 71 Sudoeste 0 -- -- 71
2019-04-06 16:00:00 15.5 33 Oeste 62 Oeste 0 -- -- 69
2019-04-06 15:00:00 15.6 23 Oeste 56 Oeste 0 -- -- 67
2019-04-06 14:00:00 15.7 26 Oeste 59 Sudoeste 0 -- -- 64
2019-04-06 13:00:00 15.9 22 Oeste 57 Oeste 0 -- -- 61
2019-04-06 12:00:00 15.7 32 Oeste 56 Sudoeste 0 -- -- 59
2019-04-06 11:00:00 15.5 30 Oeste 55 Oeste 0 -- -- 59
2019-04-06 10:00:00 15 36 Oeste 62 Oeste 0 -- -- 61
2019-04-06 09:00:00 13.9 44 Oeste 64 Oeste 0 -- -- 65
2019-04-06 08:00:00 13.1 42 Oeste 63 Oeste 0 -- -- 66
2019-04-06 07:00:00 13.2 43 Oeste 65 Oeste 0 -- -- 65
2019-04-06 06:00:00 12.9 41 Oeste 57 Oeste 0 -- -- 62
2019-04-06 05:00:00 13 20 Oeste 56 Oeste 0 -- -- 66
2019-04-06 04:00:00 13.3 35 Oeste 66 Oeste 0 -- -- 64
2019-04-06 03:00:00 13.8 33 Oeste 59 Oeste 0 -- -- 63
2019-04-06 02:00:00 14 33 Oeste 61 Sudoeste 0 -- -- 61
2019-04-06 01:00:00 14.3 25 Oeste 50 Sur 0 -- -- 60
2019-04-06 00:00:00 14.4 22 Oeste 46 Oeste 0 -- -- 61
2019-04-05 23:00:00 14.1 17 Oeste 39 Oeste 0 -- -- 59
2019-04-05 22:00:00 13.9 29 Oeste 47 Oeste 0 -- -- 65
2019-04-05 21:00:00 14.3 28 Oeste 67 Sudoeste 0 -- -- 69
2019-04-05 20:00:00 14.2 32 Oeste 62 Sudoeste 0 -- -- 74
2019-04-05 19:00:00 13.9 19 Oeste 47 Sudoeste 0 -- -- 80
2019-04-05 18:00:00 13.7 22 Oeste 46 Oeste 0 -- -- 80
2019-04-05 17:00:00 12.9 14 Oeste 54 Oeste 0.8 -- -- 81
2019-04-05 16:00:00 14.3 38 Oeste 67 Oeste 0 -- -- 77
2019-04-05 15:00:00 15.2 37 Oeste 68 Oeste 0 -- -- 75
2019-04-05 14:00:00 13.8 31 Oeste 64 Oeste 0 -- -- 77
2019-04-05 13:00:00 16.1 17 Oeste 42 Oeste 0 -- -- 73
2019-04-05 12:00:00 16 28 Oeste 48 Sudoeste 0 -- -- 70
2019-04-05 11:00:00 15.8 28 Oeste 55 Oeste 0 -- -- 71
2019-04-05 10:00:00 15 30 Oeste 57 Sudoeste 0 -- -- 73
2019-04-05 09:00:00 14.9 30 Oeste 51 Oeste 0 -- -- 72
2019-04-05 08:00:00 14.1 33 Oeste 53 Sudoeste 0 -- -- 73
2019-04-05 07:00:00 14.2 33 Oeste 46 Oeste 0 -- -- 71
2019-04-05 06:00:00 14.1 22 Oeste 40 Oeste 0 -- -- 72
2019-04-05 05:00:00 13.9 27 Oeste 58 Oeste 0 -- -- 71
2019-04-05 04:00:00 13.9 32 Oeste 54 Oeste 0 -- -- 72
2019-04-05 03:00:00 14.1 34 Oeste 60 Oeste 0 -- -- 74
2019-04-05 02:00:00 14.4 32 Oeste 49 Sudoeste 0 -- -- 77
2019-04-05 01:00:00 14.9 23 Oeste 40 Noroeste 0 -- -- 79
2019-04-05 00:00:00 15 4 Sur 16 Sudoeste 0 -- -- 78
2019-04-04 23:00:00 14.9 6 Oeste 15 Oeste 0 -- -- 77
2019-04-04 22:00:00 14.8 9 Este 19 Este 0 -- -- 76
2019-04-04 21:00:00 14.7 14 Este 21 Este 0 -- -- 74
2019-04-04 20:00:00 14.7 16 Este 29 Este 0 -- -- 72
2019-04-04 19:00:00 15 22 Este 35 Este 0 -- -- 70
2019-04-04 18:00:00 15.1 27 Este 39 Este 0 -- -- 69
2019-04-04 17:00:00 15.4 29 Este 51 Este 0 -- -- 66
2019-04-04 16:00:00 15.7 35 Este 52 Sudeste 0 -- -- 64
2019-04-04 15:00:00 15.8 39 Este 55 Este 0 -- -- 65
2019-04-04 14:00:00 15.7 30 Este 51 Nordeste 0 -- -- 66
2019-04-04 13:00:00 16.6 31 Este 57 Este 0 -- -- 64
2019-04-04 12:00:00 16.2 35 Este 54 Nordeste 0 -- -- 68
2019-04-04 11:00:00 15.6 38 Este 56 Este 0 -- -- 72
2019-04-04 10:00:00 15.3 35 Este 55 Este 0 -- -- 78
2019-04-04 09:00:00 14.5 37 Nordeste 64 Este 0 -- -- 82
2019-04-04 08:00:00 14.6 33 Este 48 Este 0 -- -- 84
2019-04-04 07:00:00 14.9 18 Este 28 Este 0 -- -- 84
2019-04-04 06:00:00 15.1 4 Norte 13 Oeste 0 -- -- 84
2019-04-04 05:00:00 15.5 3 Sudoeste 15 Oeste 0 -- -- 84
2019-04-04 04:00:00 15.2 2 Noroeste 11 Noroeste 0 -- -- 84
2019-04-04 03:00:00 15.2 4 Noroeste 12 Noroeste 0 -- -- 84
2019-04-04 02:00:00 15.8 6 Noroeste 18 Noroeste 0 -- -- 85
2019-04-04 01:00:00 16.1 12 Noroeste 26 Noroeste 0 -- -- 85
2019-04-04 00:00:00 16.3 5 Noroeste 22 Noroeste 0 -- -- 84
2019-04-03 23:00:00 16.5 15 Noroeste 27 Noroeste 0 -- -- 83
2019-04-03 22:00:00 16.6 11 Noroeste 30 Noroeste 0 -- -- 82
2019-04-03 21:00:00 16.8 19 Noroeste 28 Noroeste 0 -- -- 80
2019-04-03 20:00:00 17.4 13 Noroeste 28 Noroeste 0 -- -- 78
2019-04-03 19:00:00 17.4 14 Noroeste 42 Noroeste 0 -- -- 76
2019-04-03 18:00:00 18.1 8 Oeste 20 Sudoeste 0 -- -- 77
2019-04-03 17:00:00 18.9 8 Oeste 27 Oeste 0 -- -- 74
2019-04-03 16:00:00 19.8 9 Oeste 21 Oeste 0 -- -- 73
2019-04-03 15:00:00 20 14 Oeste 25 Oeste 0 -- -- 73
2019-04-03 14:00:00 19.4 18 Oeste 26 Oeste 0 -- -- 76
2019-04-03 13:00:00 18.8 10 Oeste 17 Sudoeste 0 -- -- 82
2019-04-03 12:00:00 17.3 4 Oeste 9 Sudoeste 0 -- -- 85
2019-04-03 11:00:00 16.3 3 Oeste 12 Noroeste 0 -- -- 87
2019-04-03 10:00:00 16 7 Oeste 19 Oeste 0 -- -- 88
2019-04-03 09:00:00 15.5 12 Oeste 25 Noroeste 0 -- -- 88
2019-04-03 08:00:00 15.1 13 Oeste 26 Oeste 0 -- -- 88
2019-04-03 07:00:00 15.2 16 Oeste 24 Noroeste 0 -- -- 88
2019-04-03 06:00:00 15.2 21 Noroeste 28 Noroeste 0 -- -- 87
2019-04-03 05:00:00 15.5 15 Oeste 27 Noroeste 0 -- -- 87
2019-04-03 04:00:00 15.7 19 Noroeste 28 Noroeste 0 -- -- 85
2019-04-03 03:00:00 16 13 Oeste 21 Oeste 0 -- -- 84
2019-04-03 02:00:00 16 12 Oeste 27 Noroeste 0 -- -- 82
2019-04-03 01:00:00 16.1 16 Noroeste 27 Noroeste 0 -- -- 82
2019-04-03 00:00:00 16.4 9 Oeste 17 Oeste 0 -- -- 80
2019-04-02 23:00:00 16.5 8 Oeste 16 Oeste 0 -- -- 78
2019-04-02 22:00:00 16.5 10 Oeste 23 Noroeste 0 -- -- 76
2019-04-02 21:00:00 16.5 14 Oeste 24 Oeste 0 -- -- 77
2019-04-02 20:00:00 17.1 13 Oeste 21 Oeste 0 -- -- 78
2019-04-02 19:00:00 17.9 12 Oeste 21 Oeste 0 -- -- 77
2019-04-02 18:00:00 18.6 9 Oeste 16 Oeste 0 -- -- 74
2019-04-02 17:00:00 19.3 6 Oeste 13 Oeste 0 -- -- 71
2019-04-02 16:00:00 19.6 4 Oeste 10 Oeste 0 -- -- 70
2019-04-02 15:00:00 19.5 5 Oeste 14 Noroeste 0 -- -- 71
2019-04-02 14:00:00 19.6 8 Oeste 19 Noroeste 0 -- -- 70
2019-04-02 13:00:00 19.7 9 Oeste 19 Noroeste 0 -- -- 70
2019-04-02 12:00:00 18.7 11 Oeste 21 Noroeste 0 -- -- 75
2019-04-02 11:00:00 17.3 12 Noroeste 23 Noroeste 0 -- -- 81
2019-04-02 10:00:00 15.9 12 Noroeste 20 Noroeste 0 -- -- 83
2019-04-02 09:00:00 14.8 7 Oeste 13 Oeste 0 -- -- 85
2019-04-02 08:00:00 13.9 6 Noroeste 27 Noroeste 0 -- -- 85
2019-04-02 07:00:00 13.9 10 Noroeste 20 Oeste 0 -- -- 87
2019-04-02 06:00:00 14.5 12 Noroeste 25 Noroeste 0 -- -- 86
2019-04-02 05:00:00 15.2 17 Noroeste 23 Noroeste 0 -- -- 86
2019-04-02 04:00:00 15.5 8 Oeste 16 Oeste 0 -- -- 86
2019-04-02 03:00:00 15.8 4 Sur 10 Oeste 0 -- -- 85
2019-04-02 02:00:00 15.8 4 Oeste 6 Oeste 0 -- -- 85
2019-04-02 01:00:00 15.6 3 Oeste 9 Oeste 0 -- -- 85
2019-04-02 00:00:00 15.6 6 Oeste 13 Oeste 0 -- -- 84
2019-04-01 23:00:00 15.8 3 Oeste 12 Sudoeste 0 -- -- 83
2019-04-01 22:00:00 15.8 0 Calma 13 Oeste 0 -- -- 82
2019-04-01 21:00:00 16.1 7 Oeste 12 Oeste 0 -- -- 82
2019-04-01 20:00:00 16.4 4 Oeste 14 Sudoeste 0 -- -- 82
2019-04-01 19:00:00 16.7 6 Sudoeste 14 Oeste 0 -- -- 82
2019-04-01 18:00:00 17.1 5 Sudoeste 13 Oeste 0 -- -- 81
2019-04-01 17:00:00 17.6 6 Sur 17 Noroeste 0 -- -- 79
2019-04-01 16:00:00 18 6 Sur 14 Sudoeste 0 -- -- 80
2019-04-01 15:00:00 18.3 5 Sur 15 Sudoeste 0 -- -- 82
2019-04-01 14:00:00 17.6 7 Sudeste 15 Sudoeste 0 -- -- 85
2019-04-01 13:00:00 17.2 6 Sur 15 Sur 0 -- -- 87
2019-04-01 12:00:00 17 6 Sudeste 13 Oeste 0 -- -- 89
2019-04-01 11:00:00 16 3 Sudoeste 16 Sur 0 -- -- 90
2019-04-01 10:00:00 15.4 3 Sur 9 Sur 0 -- -- 91
2019-04-01 09:00:00 14.9 5 Sudeste 14 Sur 0 -- -- 90
2019-04-01 08:00:00 14.8 6 Sudoeste 17 Oeste 0 -- -- 90
2019-04-01 07:00:00 14.8 9 Oeste 21 Oeste 0 -- -- 90
2019-04-01 06:00:00 14.6 9 Oeste 20 Oeste 0 -- -- 90
2019-04-01 05:00:00 14.4 8 Oeste 22 Noroeste 0 -- -- 90
2019-04-01 04:00:00 14.1 15 Noroeste 22 Noroeste 1.2 -- -- 90
2019-04-01 03:00:00 14 5 Noroeste 17 Noroeste 5.8 -- -- 89
2019-04-01 02:00:00 14 7 Norte 12 Noroeste 3.8 -- -- 89
2019-04-01 01:00:00 13.8 6 Noroeste 23 Noroeste 1.2 -- -- 89
2019-04-01 00:00:00 13.7 16 Noroeste 31 Noroeste 0.4 -- -- 88
2019-03-31 23:00:00 14.3 15 Noroeste 28 Oeste 0 -- -- 87
2019-03-31 22:00:00 14.2 13 Noroeste 27 Noroeste 0.2 -- -- 85
2019-03-31 21:00:00 14.5 12 Noroeste 21 Oeste 0 -- -- 84
2019-03-31 20:00:00 14.7 9 Oeste 16 Noroeste 0 -- -- 83
2019-03-31 19:00:00 14.7 4 Noroeste 33 Noroeste 0 -- -- 81
2019-03-31 18:00:00 14.7 22 Norte 34 Norte 0 -- -- 76
2019-03-31 17:00:00 15.2 12 Noroeste 36 Norte 0 -- -- 75
2019-03-31 16:00:00 15.9 14 Nordeste 44 Este 0 -- -- 73
2019-03-31 15:00:00 15.9 26 Nordeste 45 Nordeste 0 -- -- 75
2019-03-31 14:00:00 15.7 24 Nordeste 53 Nordeste 0 -- -- 75
2019-03-31 13:00:00 15.2 32 Nordeste 60 Nordeste 0 -- -- 76
2019-03-31 12:00:00 14.9 31 Nordeste 58 Nordeste 0 -- -- 79
2019-03-31 11:00:00 14 37 Nordeste 59 Nordeste 0 -- -- 79
2019-03-31 10:00:00 13.6 37 Nordeste 59 Nordeste 0 -- -- 79
2019-03-31 09:00:00 13.5 38 Nordeste 62 Nordeste 0 -- -- 80
2019-03-31 08:00:00 13.4 31 Nordeste 50 Nordeste 0 -- -- 79
2019-03-31 07:00:00 13.7 27 Nordeste 58 Este 0 -- -- 78
2019-03-31 06:00:00 13.6 33 Nordeste 52 Nordeste 0 -- -- 78
2019-03-31 05:00:00 14.1 26 Nordeste 50 Nordeste 0 -- -- 76
2019-03-31 03:00:00 14.2 17 Nordeste 41 Nordeste 0 -- -- 75
2019-03-31 01:00:00 14 25 Nordeste 56 Nordeste 0 -- -- 76
2019-03-31 00:00:00 14 39 Nordeste 67 Este 0.2 -- -- 77
2019-03-30 23:00:00 14 46 Nordeste 71 Nordeste 0 -- -- 78
2019-03-30 22:00:00 14 26 Nordeste 65 Este 0.8 -- -- 76
2019-03-30 21:00:00 14.2 46 Nordeste 75 Nordeste 0 -- -- 74
2019-03-30 20:00:00 14.5 41 Nordeste 76 Nordeste 0 -- -- 71
2019-03-30 19:00:00 14.9 47 Nordeste 75 Este 0 -- -- 68
2019-03-30 18:00:00 15.5 50 Nordeste 75 Nordeste 0 -- -- 64
2019-03-30 17:00:00 15.9 42 Nordeste 82 Este 0 -- -- 62
2019-03-30 16:00:00 15.9 48 Nordeste 84 Este 0 -- -- 60
2019-03-30 15:00:00 16 37 Este 71 Nordeste 0 -- -- 63
2019-03-30 14:00:00 16.1 49 Este 78 Este 0 -- -- 61
2019-03-30 13:00:00 16.5 39 Este 77 Nordeste 0 -- -- 61
2019-03-30 12:00:00 16 45 Este 73 Nordeste 0 -- -- 60
2019-03-30 11:00:00 15.5 40 Este 65 Nordeste 0 -- -- 61
2019-03-30 10:00:00 14.6 23 Nordeste 48 Este 0 -- -- 65
2019-03-30 09:00:00 13.8 21 Nordeste 46 Nordeste 0 -- -- 67
2019-03-30 08:00:00 13.4 19 Norte 43 Norte 0 -- -- 68
2019-03-30 07:00:00 13.1 21 Nordeste 50 Este 0 -- -- 67
2019-03-30 06:00:00 13.3 18 Nordeste 35 Este 0 -- -- 65
2019-03-30 05:00:00 13.4 6 Norte 39 Nordeste 0 -- -- 63
2019-03-30 04:00:00 13.7 11 Norte 48 Nordeste 0 -- -- 62
2019-03-30 03:00:00 13.7 22 Norte 50 Norte 0 -- -- 64
2019-03-30 02:00:00 13.7 25 Nordeste 52 Nordeste 0 -- -- 64
2019-03-30 01:00:00 13.9 17 Nordeste 43 Nordeste 0 -- -- 65
2019-03-30 00:00:00 13.8 18 Nordeste 42 Este 0 -- -- 67
2019-03-29 23:00:00 14 27 Nordeste 57 Nordeste 0 -- -- 67
2019-03-29 22:00:00 14.2 42 Nordeste 64 Nordeste 0 -- -- 67
2019-03-29 21:00:00 14.4 37 Nordeste 63 Nordeste 0 -- -- 67
2019-03-29 20:00:00 14.6 41 Nordeste 69 Nordeste 0 -- -- 66
2019-03-29 19:00:00 14.9 42 Nordeste 77 Nordeste 0 -- -- 63
2019-03-29 18:00:00 15 52 Nordeste 75 Nordeste 0 -- -- 60
2019-03-29 17:00:00 15.4 46 Este 69 Nordeste 0 -- -- 60
2019-03-29 16:00:00 16 40 Este 83 Este 0 -- -- 56
2019-03-29 15:00:00 16.2 54 Este 85 Este 0 -- -- 57
2019-03-29 14:00:00 16.1 55 Este 79 Este 0 -- -- 57
2019-03-29 13:00:00 16.8 39 Nordeste 75 Nordeste 0 -- -- 58
2019-03-29 12:00:00 16.7 33 Nordeste 78 Este 0 -- -- 57
2019-03-29 11:00:00 16.6 36 Nordeste 68 Nordeste 0 -- -- 57
2019-03-29 10:00:00 15.8 31 Nordeste 55 Este 0 -- -- 60
2019-03-29 09:00:00 14.3 25 Nordeste 51 Este 0 -- -- 66
2019-03-29 08:00:00 13.7 16 Nordeste 58 Este 0 -- -- 69
2019-03-29 07:00:00 13.3 17 Nordeste 39 Este 0 -- -- 69
2019-03-29 06:00:00 13.3 15 Nordeste 41 Nordeste 0 -- -- 68
2019-03-29 05:00:00 13.3 17 Norte 47 Este 0 -- -- 68
2019-03-29 04:00:00 13.3 26 Nordeste 54 Nordeste 0 -- -- 66
2019-03-29 03:00:00 13.6 22 Nordeste 55 Este 0 -- -- 61
2019-03-29 02:00:00 13.7 20 Nordeste 41 Nordeste 0 -- -- 61
2019-03-29 01:00:00 13.7 17 Nordeste 51 Nordeste 0 -- -- 64
2019-03-29 00:00:00 13.8 20 Nordeste 42 Este 0 -- -- 65
2019-03-28 23:00:00 13.8 19 Nordeste 33 Nordeste 0 -- -- 68
2019-03-28 22:00:00 13.9 19 Nordeste 40 Nordeste 0 -- -- 65
2019-03-28 21:00:00 14 17 Nordeste 45 Nordeste 0 -- -- 64
2019-03-28 20:00:00 14.2 27 Nordeste 49 Este 0 -- -- 64
2019-03-28 19:00:00 14.7 27 Este 53 Este 0 -- -- 63
2019-03-28 18:00:00 14.9 35 Este 58 Este 0 -- -- 63
2019-03-28 17:00:00 15.3 28 Este 59 Sudeste 0 -- -- 61
2019-03-28 16:00:00 15.4 34 Este 60 Este 0 -- -- 62
2019-03-28 15:00:00 16 32 Este 60 Este 0 -- -- 54
2019-03-28 14:00:00 16.7 28 Este 50 Nordeste 0 -- -- 49
2019-03-28 13:00:00 16.6 32 Nordeste 53 Nordeste 0 -- -- 47
2019-03-28 12:00:00 16.7 27 Este 52 Este 0 -- -- 48
2019-03-28 11:00:00 16.4 29 Nordeste 50 Este 0 -- -- 45
2019-03-28 10:00:00 16.3 15 Nordeste 42 Nordeste 0 -- -- 48
2019-03-28 09:00:00 15.1 19 Nordeste 38 Este 0 -- -- 50
2019-03-28 08:00:00 13.1 9 Norte 23 Norte 0 -- -- 54
2019-03-28 07:00:00 12.4 13 Norte 28 Norte 0 -- -- 55
2019-03-28 06:00:00 12.3 15 Norte 33 Norte 0 -- -- 55
2019-03-28 05:00:00 12.3 14 Norte 29 Norte 0 -- -- 57
2019-03-28 04:00:00 12.2 11 Norte 28 Norte 0 -- -- 58
2019-03-28 03:00:00 12.6 9 Norte 23 Norte 0 -- -- 59
2019-03-28 02:00:00 12.9 10 Norte 25 Nordeste 0 -- -- 59
2019-03-28 01:00:00 12.9 9 Norte 21 Nordeste 0 -- -- 61
2019-03-28 00:00:00 13.7 11 Nordeste 42 Nordeste 0 -- -- 59
2019-03-27 23:00:00 14.1 16 Nordeste 37 Este 0 -- -- 54
2019-03-27 22:00:00 14.2 15 Nordeste 59 Nordeste 0 -- -- 54
2019-03-27 21:00:00 14.2 36 Nordeste 71 Este 0 -- -- 62
2019-03-27 20:00:00 14.4 44 Nordeste 81 Este 0 -- -- 64
2019-03-27 19:00:00 14.6 45 Este 71 Este 0 -- -- 64
2019-03-27 18:00:00 15.1 40 Este 69 Nordeste 0 -- -- 57
2019-03-27 17:00:00 15.4 35 Este 67 Nordeste 0 -- -- 56
2019-03-27 16:00:00 15.8 32 Este 68 Este 0 -- -- 57
2019-03-27 15:00:00 16.2 38 Este 90 Este 0 -- -- 55
2019-03-27 14:00:00 16.1 49 Este 84 Este 0 -- -- 53
2019-03-27 13:00:00 16.5 43 Nordeste 82 Este 0 -- -- 51
2019-03-27 12:00:00 16.2 39 Nordeste 89 Este 0 -- -- 50
2019-03-27 11:00:00 15.7 44 Nordeste 90 Nordeste 0 -- -- 49
2019-03-27 10:00:00 15.4 39 Nordeste 68 Nordeste 0 -- -- 50
2019-03-27 09:00:00 14.9 31 Nordeste 58 Nordeste 0 -- -- 51
2019-03-27 08:00:00 13.8 30 Nordeste 55 Nordeste 0 -- -- 54
2019-03-27 07:00:00 13.1 21 Norte 47 Nordeste 0 -- -- 58
2019-03-27 06:00:00 13.2 28 Nordeste 65 Nordeste 0 -- -- 58
2019-03-27 05:00:00 13 22 Nordeste 57 Este 0 -- -- 59
2019-03-27 04:00:00 13.2 27 Nordeste 59 Este 0 -- -- 59
2019-03-27 03:00:00 13.4 25 Nordeste 54 Nordeste 0 -- -- 59
2019-03-27 02:00:00 13.8 32 Nordeste 81 Nordeste 0 -- -- 57
2019-03-27 01:00:00 13.9 36 Nordeste 88 Este 0 -- -- 59
2019-03-27 00:00:00 14.1 34 Nordeste 89 Este 0 -- -- 59
2019-03-26 23:00:00 14.3 35 Nordeste 80 Este 0 -- -- 59
2019-03-26 22:00:00 14.7 38 Nordeste 78 Nordeste 0 -- -- 58
2019-03-26 21:00:00 14.9 37 Nordeste 80 Este 0 -- -- 55
2019-03-26 20:00:00 15.3 42 Nordeste 86 Nordeste 0 -- -- 50
2019-03-26 19:00:00 15.6 35 Nordeste 83 Nordeste 0 -- -- 55
2019-03-26 18:00:00 15.7 45 Nordeste 83 Nordeste 0 -- -- 66
2019-03-26 17:00:00 16.1 50 Nordeste 98 Nordeste 0 -- -- 67
2019-03-26 16:00:00 16.7 51 Este 88 Este 0 -- -- 65
2019-03-26 15:00:00 17.4 39 Nordeste 89 Este 0 -- -- 63
2019-03-26 14:00:00 17.4 52 Nordeste 104 Nordeste 0 -- -- 62
2019-03-26 13:00:00 17.7 62 Nordeste 100 Nordeste 0 -- -- 57
2019-03-26 12:00:00 18 56 Nordeste 99 Este 0 -- -- 58
2019-03-26 11:00:00 18.6 50 Nordeste 99 Nordeste 0 -- -- 40
2019-03-26 10:00:00 18.6 51 Nordeste 96 Nordeste 0 -- -- 33
2019-03-26 09:00:00 18 57 Nordeste 85 Nordeste 0 -- -- 30
2019-03-26 08:00:00 17.2 40 Nordeste 67 Este 0 -- -- 31
2019-03-26 07:00:00 17.2 23 Nordeste 48 Este 0 -- -- 34
2019-03-26 06:00:00 17.1 26 Nordeste 48 Norte 0 -- -- 36
2019-03-26 05:00:00 17 21 Nordeste 40 Nordeste 0 -- -- 38
2019-03-26 04:00:00 16.8 21 Nordeste 41 Nordeste 0 -- -- 41
2019-03-26 03:00:00 16.8 17 Nordeste 42 Nordeste 0 -- -- 43
2019-03-26 02:00:00 16.8 22 Nordeste 47 Nordeste 0 -- -- 45
2019-03-26 01:00:00 16.8 19 Nordeste 48 Nordeste 0 -- -- 47
2019-03-26 00:00:00 16.9 22 Nordeste 48 Este 0 -- -- 45
2019-03-25 23:00:00 17.6 24 Nordeste 57 Nordeste 0 -- -- 44
2019-03-25 22:00:00 17.5 32 Nordeste 53 Nordeste 0 -- -- 49
2019-03-25 21:00:00 17.4 33 Nordeste 57 Nordeste 0 -- -- 52
2019-03-25 20:00:00 17.2 33 Nordeste 55 Nordeste 0 -- -- 55
2019-03-25 19:00:00 17.4 32 Nordeste 58 Nordeste 0 -- -- 58
2019-03-25 18:00:00 18.1 33 Nordeste 48 Este 0 -- -- 55
2019-03-25 17:00:00 18.8 23 Este 49 Este 0 -- -- 52
2019-03-25 16:00:00 19.5 31 Este 52 Nordeste 0 -- -- 49
2019-03-25 15:00:00 19.9 34 Este 54 Este 0 -- -- 48
2019-03-25 14:00:00 20 37 Este 62 Este 0 -- -- 44
2019-03-25 13:00:00 20.2 30 Este 56 Este 0 -- -- 42
2019-03-25 12:00:00 20.5 26 Este 48 Nordeste 0 -- -- 41
2019-03-25 11:00:00 19.9 28 Nordeste 51 Nordeste 0 -- -- 42
2019-03-25 10:00:00 19 24 Nordeste 50 Nordeste 0 -- -- 43
2019-03-25 09:00:00 17.6 22 Nordeste 49 Este 0 -- -- 44
2019-03-25 08:00:00 16.8 18 Norte 40 Este 0 -- -- 45
2019-03-25 07:00:00 15.8 19 Nordeste 35 Norte 0 -- -- 46
2019-03-25 06:00:00 16 18 Nordeste 32 Nordeste 0 -- -- 47
2019-03-25 05:00:00 16.1 18 Nordeste 30 Este 0 -- -- 48
2019-03-25 04:00:00 16.3 15 Norte 37 Nordeste 0 -- -- 49
2019-03-25 03:00:00 15.8 22 Norte 39 Norte 0 -- -- 55
2019-03-25 02:00:00 16.3 18 Nordeste 37 Nordeste 0 -- -- 52
2019-03-25 01:00:00 16.8 22 Nordeste 46 Nordeste 0 -- -- 51
2019-03-25 00:00:00 16.3 27 Nordeste 53 Nordeste 0 -- -- 57